Briefing drone pour Grenoble (LFLS)

Rechercher une autre localisation

Conditions de vol :


Nous sommes le : Mercredi 28 juillet 2021
Il est 00:50 UTC (02:50 LT)

Lever de soleil : 03:51 UTC (05:51 LT)
Coucher de soleil : 19:35 UTC (21:35 LT)

Météo

L'essentiel des conditions de vol

VIGILANCE MÉTÉO FRANCE - Isère (38)
Vigilance Jaune : Orages
CARTE TEMSI
CARTES DES FRONTS
METAR de LFLS
LFLS 280030Z AUTO 36003KT 9999 BKN068 OVC100 18/16 Q1016

Date d'émission: 28/07/2021
Heure d'émission: 00:30 UTC
Vent: 360° pour 3 KT (6 km/h)
Visibilité horizontale: > 10 km
Plafond :
- Nuages morcelés à 6800ft (2073m)
- Couvert à 10000ft (3048m)
Température: 18 °C
Point de rosée: 16 °C
Humidité: 88%
Pression (QNH): 1016 hPa
TAF de LFLS
LFLS 271901Z 2719/2815 CNL

Conditions prévues :

Heure d'émission : Bulletin éffectué le 27 à 19:00 UTC
Prévision : Valide du 27 a 19:00 UTC au 28 a 15:00 UTC
Nuages : à 0ft (0 m)
WEBCAM POUR GRENOBLE

Réglementation

Voler en sécurité

CARTES AERONAUTIQUE 1/500.000
CARTES VAC (LFLS)
SUP AIP




Chargement des AIP...
NOTAM (GRENOBLE + Terrain à proximité / FIR )




Chargement des NOTAMS...
CONTACT PREFECTURE 38


Avertissement : Les données mises à disposition sont indicatives. Oxygène Drone ne pourra être tenu responsable de dégâts causés aux biens et aux personnes.